Time;durP1;ratioP1;P1;durP2;ratioP2;P2;SDS_P1;SDS_P2;PMS_P1;PMS_P2;Temp;Humidity;BMP_temperature;BMP_pressure;BME280_temperature;BME280_humidity;BME280_pressure;Samples;Min_cycle;Max_cycle;Signal;HPM_P1;HPM_P2
2023/08/16 00:02:03;;;;;;;2.88;2.47;;;17.90;99.90;;;;;;4963649;28;20031;-74
2023/08/16 00:04:29;;;;;;;3.67;2.35;;;18.00;99.90;;;;;;4981590;28;20022;-75
2023/08/16 00:06:54;;;;;;;5.38;2.58;;;18.00;99.90;;;;;;4981470;28;20211;-74
2023/08/16 00:09:21;;;;;;;6.82;2.75;;;18.00;99.90;;;;;;4981197;28;20015;-76
2023/08/16 00:11:47;;;;;;;2.78;2.42;;;17.90;99.90;;;;;;4980327;28;20034;-77
2023/08/16 00:14:13;;;;;;;5.57;2.70;;;17.90;99.90;;;;;;4979889;28;20090;-74
2023/08/16 00:16:40;;;;;;;2.85;2.45;;;17.90;99.90;;;;;;4962343;28;20073;-75
2023/08/16 00:19:05;;;;;;;6.63;2.42;;;17.90;99.90;;;;;;4980520;28;20021;-74
2023/08/16 00:21:31;;;;;;;3.08;2.53;;;18.00;99.90;;;;;;4979702;28;20019;-75
2023/08/16 00:23:57;;;;;;;2.00;1.88;;;18.00;99.90;;;;;;4979250;28;20183;-75
2023/08/16 00:26:23;;;;;;;2.85;2.45;;;18.00;99.90;;;;;;4979395;28;20035;-77
2023/08/16 00:28:49;;;;;;;2.38;2.17;;;17.90;99.90;;;;;;4999261;28;20030;-75
2023/08/16 00:31:15;;;;;;;3.42;2.08;;;17.90;99.90;;;;;;4985038;28;20027;-74
2023/08/16 00:33:40;;;;;;;3.20;2.25;;;17.80;99.90;;;;;;4979200;28;20031;-74
2023/08/16 00:36:07;;;;;;;2.42;1.85;;;17.80;99.90;;;;;;4979546;28;20090;-74
2023/08/16 00:38:33;;;;;;;4.20;2.50;;;17.80;99.90;;;;;;4980251;28;20343;-75
2023/08/16 00:40:58;;;;;;;4.40;2.03;;;17.70;99.90;;;;;;4980131;28;20062;-73
2023/08/16 00:43:24;;;;;;;5.22;2.65;;;17.70;99.90;;;;;;4979650;28;20042;-74
2023/08/16 00:45:50;;;;;;;2.30;2.10;;;17.60;99.90;;;;;;4979883;28;20030;-75
2023/08/16 00:48:19;;;;;;;3.28;2.97;;;17.50;99.90;;;;;;4979922;28;20295;-73
2023/08/16 00:50:46;;;;;;;4.18;2.17;;;17.60;99.90;;;;;;4980444;28;20245;-73
2023/08/16 00:53:13;;;;;;;2.28;2.08;;;17.60;99.90;;;;;;4979706;28;20035;-76
2023/08/16 00:55:40;;;;;;;3.67;2.42;;;17.50;99.90;;;;;;4980086;28;20031;-77
2023/08/16 00:58:06;;;;;;;3.40;2.38;;;17.50;99.90;;;;;;4962737;28;20030;-76
2023/08/16 01:00:32;;;;;;;3.00;2.30;;;17.50;99.90;;;;;;4980252;28;20057;-77
2023/08/16 01:02:58;;;;;;;4.57;2.00;;;17.50;99.90;;;;;;4980897;28;20023;-75
2023/08/16 01:05:24;;;;;;;7.82;2.90;;;17.50;99.90;;;;;;4980171;28;20073;-76
2023/08/16 01:07:50;;;;;;;5.68;2.63;;;17.50;99.90;;;;;;4979879;28;20037;-73
2023/08/16 01:10:16;;;;;;;3.80;2.78;;;17.50;99.90;;;;;;4980178;28;20027;-74
2023/08/16 01:12:49;;;;;;;2.92;2.63;;;17.40;99.90;;;;;;4980029;28;20094;-76
2023/08/16 01:15:22;;;;;;;3.75;2.78;;;17.40;99.90;;;;;;4962823;28;20271;-74
2023/08/16 01:17:50;;;;;;;3.17;2.50;;;17.40;99.90;;;;;;4962200;28;20042;-78
2023/08/16 01:20:18;;;;;;;4.25;2.33;;;17.40;99.90;;;;;;4979993;28;20023;-75
2023/08/16 01:23:04;;;;;;;3.20;2.50;;;17.50;99.90;;;;;;4980191;28;20015;-76
2023/08/16 01:26:18;;;;;;;2.72;2.53;;;17.40;99.90;;;;;;4979779;28;20047;-73
2023/08/16 01:28:45;;;;;;;4.32;2.72;;;17.40;99.90;;;;;;4882847;29;20025;-73
2023/08/16 01:31:11;;;;;;;3.45;2.20;;;17.40;99.90;;;;;;4882514;29;20184;-76
2023/08/16 01:33:37;;;;;;;3.42;2.78;;;17.30;99.90;;;;;;4928968;28;20042;-74
2023/08/16 01:36:03;;;;;;;3.10;2.42;;;17.30;99.90;;;;;;4979991;28;20043;-73
2023/08/16 01:38:29;;;;;;;2.38;2.17;;;17.30;99.90;;;;;;4980077;28;20018;-74
2023/08/16 01:41:19;;;;;;;2.63;2.42;;;17.30;99.90;;;;;;4979588;28;20019;-73
2023/08/16 01:43:47;;;;;;;3.92;2.78;;;17.30;99.90;;;;;;4962772;28;20481;-73
2023/08/16 01:46:14;;;;;;;2.40;2.20;;;17.30;99.90;;;;;;4978341;28;20039;-74
2023/08/16 01:48:40;;;;;;;2.47;2.38;;;17.30;99.90;;;;;;4978915;28;20342;-74
2023/08/16 01:51:06;;;;;;;4.00;2.40;;;17.20;99.90;;;;;;4962841;28;20106;-74
2023/08/16 01:53:36;;;;;;;6.72;3.28;;;17.20;99.90;;;;;;4979753;28;20102;-74
2023/08/16 01:56:01;;;;;;;4.55;2.42;;;17.20;99.90;;;;;;4979743;28;20029;-75
2023/08/16 01:58:27;;;;;;;2.85;2.22;;;17.20;99.90;;;;;;4979069;28;20218;-74
2023/08/16 02:00:53;;;;;;;3.10;2.35;;;17.20;99.90;;;;;;4979842;28;20027;-75
2023/08/16 02:03:18;;;;;;;2.58;2.30;;;17.30;99.90;;;;;;4979658;28;20033;-76
2023/08/16 02:05:45;;;;;;;3.90;2.30;;;17.20;99.90;;;;;;4979986;28;20319;-76
2023/08/16 02:08:12;;;;;;;3.40;1.92;;;17.10;99.90;;;;;;4979040;28;20049;-74
2023/08/16 02:10:37;;;;;;;2.85;2.65;;;17.10;99.90;;;;;;4980102;28;20027;-73
2023/08/16 02:13:03;;;;;;;4.65;2.70;;;17.10;99.90;;;;;;4979263;28;20331;-74
2023/08/16 02:15:29;;;;;;;11.07;2.90;;;17.10;99.90;;;;;;4979843;28;20377;-76
2023/08/16 02:17:55;;;;;;;4.53;1.95;;;17.10;99.90;;;;;;4979064;28;20038;-74
2023/08/16 02:20:20;;;;;;;3.25;2.38;;;17.10;99.90;;;;;;4980901;28;20104;-76
2023/08/16 02:22:46;;;;;;;3.08;2.03;;;17.10;99.90;;;;;;4983221;28;20019;-74
2023/08/16 02:25:12;;;;;;;3.17;2.47;;;17.10;99.90;;;;;;4965011;28;20030;-74
2023/08/16 02:27:38;;;;;;;4.30;2.80;;;17.10;99.90;;;;;;4982500;28;20086;-75
2023/08/16 02:30:04;;;;;;;4.50;3.15;;;17.00;99.90;;;;;;4965245;28;20034;-73
2023/08/16 02:32:32;;;;;;;3.15;2.13;;;17.00;99.90;;;;;;4982344;28;20069;-74
2023/08/16 02:34:57;;;;;;;3.88;2.38;;;17.00;99.90;;;;;;4981970;28;20023;-74
2023/08/16 02:37:23;;;;;;;3.10;2.22;;;17.00;99.90;;;;;;4981858;28;20350;-74
2023/08/16 02:39:49;;;;;;;4.22;2.75;;;17.00;99.90;;;;;;4982068;28;20046;-76
2023/08/16 02:42:14;;;;;;;3.80;2.22;;;16.90;99.90;;;;;;4982299;28;20307;-76
2023/08/16 02:44:40;;;;;;;2.50;1.73;;;16.90;99.90;;;;;;4982495;28;20035;-76
2023/08/16 02:47:06;;;;;;;1.95;1.73;;;16.90;99.90;;;;;;4983241;28;20146;-74
2023/08/16 02:49:32;;;;;;;2.75;2.45;;;16.90;99.90;;;;;;4981931;28;20043;-75
2023/08/16 02:51:57;;;;;;;6.88;2.75;;;16.90;99.90;;;;;;4984044;28;20042;-74
2023/08/16 02:54:23;;;;;;;4.90;2.60;;;16.90;99.90;;;;;;4982472;28;20031;-76
2023/08/16 02:56:49;;;;;;;2.47;2.28;;;16.80;99.90;;;;;;4998779;28;20037;-75
2023/08/16 02:59:15;;;;;;;4.40;2.00;;;16.80;99.90;;;;;;4985599;28;20043;-74
2023/08/16 03:01:41;;;;;;;2.88;2.30;;;16.80;99.90;;;;;;4991154;28;20029;-75
2023/08/16 03:04:07;;;;;;;3.05;1.98;;;16.80;99.90;;;;;;4964891;28;20030;-75
2023/08/16 03:06:33;;;;;;;2.53;2.08;;;16.80;99.90;;;;;;4982571;28;20031;-75
2023/08/16 03:09:00;;;;;;;3.17;2.88;;;16.70;99.90;;;;;;4981979;28;20029;-75
2023/08/16 03:11:26;;;;;;;1.80;1.65;;;16.70;99.90;;;;;;4982184;28;20034;-76
2023/08/16 03:13:51;;;;;;;3.88;2.38;;;16.70;99.90;;;;;;4982242;28;20365;-74
2023/08/16 03:16:17;;;;;;;3.80;2.65;;;16.70;99.90;;;;;;4964941;28;20023;-75
2023/08/16 03:18:42;;;;;;;4.45;2.60;;;16.70;99.90;;;;;;4964947;28;20030;-74
2023/08/16 03:21:08;;;;;;;4.65;2.70;;;16.70;99.90;;;;;;4982048;28;20031;-74
2023/08/16 03:23:34;;;;;;;4.05;2.40;;;16.80;99.90;;;;;;4980428;28;20030;-75
2023/08/16 03:25:59;;;;;;;3.40;2.30;;;16.80;99.90;;;;;;4981608;28;20037;-76
2023/08/16 03:28:25;;;;;;;2.40;2.20;;;16.80;99.90;;;;;;4980698;28;20026;-73
2023/08/16 03:30:51;;;;;;;5.75;2.60;;;16.70;99.90;;;;;;4980786;28;20318;-75
2023/08/16 03:33:16;;;;;;;2.55;2.28;;;16.70;99.90;;;;;;4980980;28;20323;-77
2023/08/16 03:35:42;;;;;;;2.65;2.45;;;16.70;99.90;;;;;;4981052;28;20031;-75
2023/08/16 03:38:08;;;;;;;3.60;2.40;;;16.70;99.90;;;;;;4981895;28;20490;-75
2023/08/16 03:40:34;;;;;;;4.00;2.83;;;16.80;99.90;;;;;;4981372;28;20094;-76
2023/08/16 03:42:59;;;;;;;6.32;3.05;;;16.70;99.90;;;;;;4980810;28;20035;-74
2023/08/16 03:45:26;;;;;;;4.10;3.35;;;16.70;99.90;;;;;;4981292;28;20062;-73
2023/08/16 03:47:53;;;;;;;3.90;3.38;;;16.70;99.90;;;;;;4981399;28;20027;-74
2023/08/16 03:50:19;;;;;;;3.60;2.72;;;16.80;99.90;;;;;;4981791;28;20097;-73
2023/08/16 03:52:45;;;;;;;7.35;3.60;;;16.90;99.90;;;;;;4981164;28;20038;-76
2023/08/16 03:55:11;;;;;;;3.65;3.17;;;16.90;99.90;;;;;;4981044;28;20031;-75
2023/08/16 03:57:36;;;;;;;3.20;2.95;;;16.90;99.90;;;;;;4980747;28;20023;-74
2023/08/16 04:00:04;;;;;;;9.93;4.47;;;16.90;99.90;;;;;;4981432;28;20046;-76
2023/08/16 04:02:30;;;;;;;4.60;3.33;;;16.90;99.90;;;;;;4979758;28;20235;-77
2023/08/16 04:05:06;;;;;;;6.88;4.32;;;16.80;99.90;;;;;;4963864;28;20330;-75
2023/08/16 04:07:31;;;;;;;6.03;3.92;;;16.80;99.90;;;;;;4962721;28;20271;-74
2023/08/16 04:09:57;;;;;;;5.40;2.78;;;16.80;99.90;;;;;;4980986;28;20027;-74
2023/08/16 04:12:23;;;;;;;4.28;3.10;;;16.70;99.90;;;;;;4963112;28;20122;-74
2023/08/16 04:14:48;;;;;;;5.70;3.58;;;16.80;99.90;;;;;;4963262;28;20022;-74
2023/08/16 04:17:14;;;;;;;5.10;3.13;;;16.70;99.90;;;;;;4980754;28;20022;-75
2023/08/16 04:19:40;;;;;;;5.05;3.30;;;16.60;99.90;;;;;;4980956;28;20089;-74
2023/08/16 04:22:05;;;;;;;3.88;2.92;;;16.50;99.90;;;;;;4978499;28;20042;-73
2023/08/16 04:24:31;;;;;;;4.65;3.70;;;16.60;99.90;;;;;;4986094;28;20056;-76
2023/08/16 04:26:57;;;;;;;4.97;3.67;;;16.60;99.90;;;;;;4999589;28;20473;-77
2023/08/16 04:29:23;;;;;;;7.15;3.97;;;16.60;99.90;;;;;;4982998;28;20030;-77
2023/08/16 04:31:49;;;;;;;4.28;3.33;;;16.60;99.90;;;;;;4993332;28;20058;-76
2023/08/16 04:34:15;;;;;;;3.92;3.17;;;16.70;99.90;;;;;;4989037;28;20045;-76
2023/08/16 04:36:40;;;;;;;12.25;5.57;;;16.70;99.90;;;;;;4986949;28;20026;-77
2023/08/16 04:39:07;;;;;;;4.85;4.10;;;16.70;99.90;;;;;;4969558;28;20491;-76
2023/08/16 04:41:33;;;;;;;5.57;4.25;;;16.70;99.90;;;;;;4987097;28;20030;-77
2023/08/16 04:43:59;;;;;;;5.03;3.42;;;16.90;99.90;;;;;;4968902;28;20514;-78
2023/08/16 04:46:25;;;;;;;3.30;3.00;;;16.90;99.90;;;;;;4986855;28;20245;-76
2023/08/16 04:48:50;;;;;;;5.45;3.97;;;17.00;99.90;;;;;;4985403;28;20076;-76
2023/08/16 04:51:17;;;;;;;5.07;2.80;;;16.90;99.90;;;;;;4968731;28;20022;-76
2023/08/16 04:53:44;;;;;;;2.78;2.50;;;16.80;99.90;;;;;;4969373;28;20475;-77
2023/08/16 04:56:09;;;;;;;7.97;4.07;;;16.90;99.90;;;;;;4967906;28;20352;-76
2023/08/16 04:58:35;;;;;;;3.33;2.90;;;16.90;99.90;;;;;;4968859;28;20069;-80
2023/08/16 05:01:01;;;;;;;3.92;2.90;;;17.00;99.90;;;;;;4968624;28;20023;-77
2023/08/16 05:03:26;;;;;;;4.00;3.55;;;16.90;99.90;;;;;;4969224;28;20532;-77
2023/08/16 05:06:01;;;;;;;4.88;3.25;;;16.90;99.90;;;;;;4969449;28;20027;-76
2023/08/16 05:08:27;;;;;;;5.97;3.10;;;17.00;99.90;;;;;;4969218;28;20041;-77
2023/08/16 05:10:52;;;;;;;3.90;3.13;;;17.10;99.90;;;;;;4968881;28;20023;-77
2023/08/16 05:13:18;;;;;;;3.10;2.80;;;17.10;99.90;;;;;;4969177;28;20214;-76
2023/08/16 05:15:44;;;;;;;3.97;2.42;;;17.10;99.90;;;;;;4968707;28;21065;-77
2023/08/16 05:18:11;;;;;;;5.38;2.30;;;17.10;99.90;;;;;;4969278;28;20046;-76
2023/08/16 05:20:38;;;;;;;6.32;2.78;;;17.20;99.90;;;;;;4968689;28;20022;-77
2023/08/16 05:23:03;;;;;;;3.10;2.35;;;17.30;99.90;;;;;;4952090;28;20058;-76
2023/08/16 05:25:29;;;;;;;3.38;2.33;;;17.40;99.90;;;;;;4971896;28;20551;-77
2023/08/16 05:27:58;;;;;;;3.03;2.42;;;17.50;99.90;;;;;;4988362;28;20388;-77
2023/08/16 05:30:25;;;;;;;2.17;1.95;;;17.60;99.90;;;;;;4988088;28;20022;-77
2023/08/16 05:32:52;;;;;;;2.80;2.60;;;17.60;99.90;;;;;;4987668;28;20495;-77
2023/08/16 05:35:18;;;;;;;2.95;1.95;;;17.70;99.90;;;;;;4988244;28;20420;-76
2023/08/16 05:37:43;;;;;;;3.58;2.17;;;17.80;99.90;;;;;;4988483;28;20031;-76
2023/08/16 05:40:09;;;;;;;2.42;2.15;;;17.80;99.90;;;;;;4988305;28;20101;-75
2023/08/16 05:42:35;;;;;;;2.80;2.60;;;18.00;99.90;;;;;;4988359;28;20225;-77
2023/08/16 05:45:01;;;;;;;4.40;2.47;;;18.10;99.90;;;;;;4987169;28;20662;-76
2023/08/16 05:47:26;;;;;;;5.05;2.38;;;18.20;99.90;;;;;;4988199;28;20534;-77
2023/08/16 05:49:52;;;;;;;3.05;2.30;;;18.30;99.90;;;;;;4988125;28;20046;-76
2023/08/16 05:52:18;;;;;;;2.70;2.30;;;18.40;99.90;;;;;;4988262;28;20534;-77
2023/08/16 05:54:43;;;;;;;5.40;2.88;;;18.40;99.90;;;;;;4991034;28;20045;-76
2023/08/16 05:57:09;;;;;;;3.85;2.63;;;18.30;99.90;;;;;;4991963;28;20329;-76
2023/08/16 05:59:34;;;;;;;4.10;2.80;;;18.70;99.90;;;;;;4991625;28;20410;-77
2023/08/16 06:02:00;;;;;;;3.38;2.85;;;18.90;99.90;;;;;;4991293;28;20031;-77
2023/08/16 06:04:26;;;;;;;6.07;4.13;;;18.90;99.90;;;;;;4991661;28;20023;-79
2023/08/16 06:06:51;;;;;;;3.13;2.83;;;19.00;99.90;;;;;;4974177;28;20491;-78
2023/08/16 06:09:17;;;;;;;5.55;2.67;;;19.20;99.90;;;;;;4992012;28;20198;-75
2023/08/16 06:11:42;;;;;;;4.82;3.20;;;19.30;99.90;;;;;;4991329;28;20379;-76
2023/08/16 06:14:08;;;;;;;3.95;3.00;;;19.40;99.90;;;;;;4991902;28;20049;-76
2023/08/16 06:16:34;;;;;;;3.47;3.17;;;19.60;99.90;;;;;;4991028;28;20420;-76
2023/08/16 06:19:01;;;;;;;3.45;2.60;;;19.60;99.90;;;;;;4991587;28;20221;-77
2023/08/16 06:21:27;;;;;;;4.65;3.75;;;19.60;99.90;;;;;;4991526;28;20058;-75
2023/08/16 06:23:54;;;;;;;3.40;2.80;;;19.70;99.90;;;;;;4990139;28;20061;-76
2023/08/16 06:26:19;;;;;;;2.80;2.60;;;19.60;99.90;;;;;;4981781;28;20111;-75
2023/08/16 06:28:46;;;;;;;3.60;3.13;;;19.70;99.90;;;;;;4971815;28;20109;-76
2023/08/16 06:31:11;;;;;;;4.60;2.95;;;19.80;99.90;;;;;;4971078;28;20117;-75
2023/08/16 06:33:37;;;;;;;3.40;3.10;;;19.90;99.90;;;;;;4970082;28;20218;-76
2023/08/16 06:36:03;;;;;;;3.80;2.92;;;20.10;99.90;;;;;;4972491;28;20110;-78
2023/08/16 06:38:28;;;;;;;3.58;2.78;;;20.30;99.90;;;;;;4972571;28;20021;-76
2023/08/16 06:40:55;;;;;;;5.10;2.80;;;20.40;99.90;;;;;;4972987;28;20034;-77
2023/08/16 06:43:21;;;;;;;3.63;2.97;;;20.50;99.90;;;;;;4972452;28;20105;-78
2023/08/16 06:45:46;;;;;;;4.13;2.55;;;20.80;99.90;;;;;;4954363;28;20066;-76
2023/08/16 06:48:12;;;;;;;4.90;4.35;;;20.80;99.90;;;;;;4954806;28;20204;-76
2023/08/16 06:50:39;;;;;;;3.72;2.60;;;20.90;99.90;;;;;;4970650;28;20486;-76
2023/08/16 06:53:05;;;;;;;2.60;2.40;;;21.10;99.90;;;;;;4955096;28;20089;-75
2023/08/16 06:55:30;;;;;;;4.82;3.10;;;21.30;99.90;;;;;;4967939;28;20048;-76
2023/08/16 06:57:56;;;;;;;1.77;1.67;;;21.30;99.90;;;;;;4973246;28;20057;-76
2023/08/16 07:00:22;;;;;;;2.85;2.50;;;21.50;99.90;;;;;;4988503;28;20126;-76
2023/08/16 07:02:48;;;;;;;3.05;2.83;;;21.40;99.90;;;;;;4990378;28;20030;-77
2023/08/16 07:05:14;;;;;;;3.20;2.80;;;21.50;99.90;;;;;;4989596;28;20014;-77
2023/08/16 07:07:40;;;;;;;5.30;2.92;;;22.00;99.90;;;;;;4973471;28;20530;-76
2023/08/16 07:10:06;;;;;;;2.78;2.17;;;22.70;99.90;;;;;;4990882;28;20411;-75
2023/08/16 07:12:32;;;;;;;4.00;2.65;;;22.90;99.90;;;;;;4965234;28;20108;-77
2023/08/16 07:14:58;;;;;;;3.28;2.10;;;23.20;99.90;;;;;;4971337;28;20019;-77
2023/08/16 07:17:23;;;;;;;6.28;3.15;;;23.00;99.90;;;;;;4990094;28;20039;-77
2023/08/16 07:19:50;;;;;;;3.60;2.40;;;22.70;99.90;;;;;;4990000;28;20471;-77
2023/08/16 07:22:16;;;;;;;3.08;2.75;;;22.90;99.90;;;;;;4970690;28;20022;-77
2023/08/16 07:24:42;;;;;;;5.85;2.22;;;23.20;99.90;;;;;;4970854;28;20396;-77
2023/08/16 07:27:07;;;;;;;2.50;2.30;;;23.60;99.90;;;;;;4970887;28;20426;-75
2023/08/16 07:29:33;;;;;;;2.60;2.03;;;23.50;99.90;;;;;;4970687;28;20035;-76
2023/08/16 07:31:58;;;;;;;4.72;2.45;;;23.30;99.90;;;;;;4970135;28;20037;-76
2023/08/16 07:34:24;;;;;;;1.90;1.80;;;23.00;99.90;;;;;;4970693;28;20058;-76
2023/08/16 07:36:50;;;;;;;3.45;2.22;;;23.00;99.90;;;;;;4970405;28;20030;-76
2023/08/16 07:39:15;;;;;;;4.55;2.45;;;22.90;99.90;;;;;;4970589;28;20448;-76
2023/08/16 07:41:41;;;;;;;2.38;2.28;;;22.90;99.90;;;;;;4970225;28;20027;-75
2023/08/16 07:44:07;;;;;;;2.75;2.38;;;22.90;99.90;;;;;;4970636;28;20019;-76
2023/08/16 07:46:32;;;;;;;4.82;2.60;;;23.10;99.90;;;;;;4969720;28;20031;-74
2023/08/16 07:48:58;;;;;;;2.53;2.33;;;23.60;99.90;;;;;;4976717;28;20018;-74
2023/08/16 07:51:24;;;;;;;2.38;2.15;;;23.60;99.90;;;;;;4989538;28;20037;-73
2023/08/16 07:53:49;;;;;;;5.38;3.10;;;23.60;99.90;;;;;;4989387;28;20081;-74
2023/08/16 07:56:15;;;;;;;3.83;1.85;;;23.90;99.90;;;;;;4989367;28;20026;-74
2023/08/16 07:58:41;;;;;;;3.90;2.30;;;24.20;99.90;;;;;;4989293;28;20046;-74
2023/08/16 08:01:07;;;;;;;2.25;2.00;;;24.20;99.90;;;;;;4971278;28;20034;-74
2023/08/16 08:03:33;;;;;;;3.97;3.08;;;24.10;99.90;;;;;;4989441;28;20030;-74
2023/08/16 08:06:02;;;;;;;3.72;2.22;;;24.10;99.90;;;;;;4989269;28;20030;-74
2023/08/16 08:08:28;;;;;;;;;;;24.60;99.90;;;;;;4972038;28;20026;-75
2023/08/16 08:10:53;;;;;;;3.95;2.83;;;25.70;99.90;;;;;;4971619;28;19916;-77
2023/08/16 08:13:19;;;;;;;3.42;2.65;;;27.10;99.90;;;;;;4988829;28;20263;-76
2023/08/16 08:15:45;;;;;;;6.28;2.85;;;28.30;99.90;;;;;;4988734;28;20076;-73
2023/08/16 08:18:11;;;;;;;4.53;2.50;;;29.20;99.90;;;;;;4988327;28;20167;-73
2023/08/16 08:20:38;;;;;;;2.78;2.45;;;28.90;97.90;;;;;;4989615;28;20464;-75
2023/08/16 08:23:04;;;;;;;3.00;2.80;;;28.40;97.70;;;;;;4977333;28;20027;-75
2023/08/16 08:25:30;;;;;;;4.00;2.75;;;28.80;96.80;;;;;;4969803;28;20050;-77
2023/08/16 08:27:56;;;;;;;4.07;2.38;;;29.70;95.40;;;;;;4969230;28;20121;-74
2023/08/16 08:30:22;;;;;;;4.50;2.53;;;30.10;92.60;;;;;;4951715;28;20428;-77
2023/08/16 08:32:48;;;;;;;4.50;2.92;;;30.30;91.70;;;;;;4969314;28;20045;-75
2023/08/16 08:35:13;;;;;;;2.88;2.55;;;30.40;90.70;;;;;;4969540;28;20027;-76
2023/08/16 08:37:39;;;;;;;3.70;2.72;;;30.60;90.20;;;;;;4969623;28;20027;-76
2023/08/16 08:40:05;;;;;;;3.05;2.63;;;30.50;89.30;;;;;;4969312;28;20069;-75
2023/08/16 08:42:32;;;;;;;5.68;2.60;;;29.90;89.20;;;;;;4970135;28;20065;-76
2023/08/16 08:44:59;;;;;;;3.53;2.90;;;29.60;90.00;;;;;;4969709;28;20622;-74
2023/08/16 08:47:24;;;;;;;3.13;2.83;;;29.00;90.20;;;;;;4969663;28;20141;-75
2023/08/16 08:49:52;;;;;;;3.60;2.85;;;28.70;90.80;;;;;;4983362;28;20069;-74
2023/08/16 08:52:18;;;;;;;2.60;2.40;;;28.50;91.50;;;;;;4989080;28;20478;-74
2023/08/16 08:54:44;;;;;;;3.25;2.28;;;28.70;91.40;;;;;;4988957;28;20026;-74
2023/08/16 08:57:11;;;;;;;2.63;2.42;;;29.70;90.60;;;;;;4971536;28;20451;-74
2023/08/16 08:59:41;;;;;;;7.15;3.10;;;29.40;89.00;;;;;;4988942;28;20053;-75
2023/08/16 09:02:07;;;;;;;3.65;2.70;;;29.20;89.30;;;;;;4988775;28;20049;-76
2023/08/16 09:04:34;;;;;;;3.72;2.80;;;29.20;90.30;;;;;;4989265;28;20471;-75
2023/08/16 09:07:04;;;;;;;5.38;2.97;;;29.40;90.20;;;;;;4970127;28;20034;-76
2023/08/16 09:09:30;;;;;;;9.15;2.85;;;29.80;87.40;;;;;;4990959;28;20023;-76
2023/08/16 09:11:56;;;;;;;4.65;2.88;;;30.20;86.40;;;;;;4991697;28;20330;-77
2023/08/16 09:14:22;;;;;;;3.38;3.08;;;30.70;84.90;;;;;;4988732;28;20033;-78
2023/08/16 09:16:47;;;;;;;5.25;2.67;;;30.10;84.70;;;;;;4988615;28;20027;-77
2023/08/16 09:19:14;;;;;;;8.75;4.32;;;29.80;86.10;;;;;;4971226;28;20018;-75
2023/08/16 09:21:41;;;;;;;4.40;2.97;;;29.80;85.70;;;;;;4988644;28;20034;-76
2023/08/16 09:24:07;;;;;;;5.80;3.15;;;29.80;85.20;;;;;;4988978;28;20077;-76
2023/08/16 09:26:35;;;;;;;4.15;3.13;;;30.10;85.30;;;;;;4988819;28;20026;-76
2023/08/16 09:29:02;;;;;;;4.43;2.83;;;30.00;85.60;;;;;;4990193;28;20057;-75
2023/08/16 09:31:32;;;;;;;3.28;2.97;;;30.10;83.40;;;;;;4992076;28;20046;-78
2023/08/16 09:34:01;;;;;;;3.50;2.30;;;30.10;84.00;;;;;;4993009;28;20037;-74
2023/08/16 09:36:28;;;;;;;;;;;30.30;84.00;;;;;;4975809;28;20097;-75
2023/08/16 09:39:00;;;;;;;3.40;3.03;;;30.10;82.90;;;;;;4992817;28;19905;-75
2023/08/16 09:41:26;;;;;;;3.25;2.90;;;30.10;83.60;;;;;;4974530;28;20113;-75
2023/08/16 09:43:51;;;;;;;3.47;3.08;;;30.50;83.60;;;;;;4991937;28;20110;-74
2023/08/16 09:46:20;;;;;;;4.55;3.42;;;30.70;81.70;;;;;;4990863;28;20026;-75
2023/08/16 09:48:46;;;;;;;7.05;2.92;;;30.40;82.90;;;;;;4986522;28;20062;-73
2023/08/16 09:51:12;;;;;;;3.22;2.92;;;30.50;83.70;;;;;;4972504;28;20062;-75
2023/08/16 09:53:47;;;;;;;5.82;3.33;;;30.30;82.30;;;;;;4971265;28;20039;-75
2023/08/16 09:56:14;;;;;;;8.50;4.18;;;30.00;84.00;;;;;;4972907;28;20057;-73
2023/08/16 09:58:40;;;;;;;4.28;3.10;;;30.20;82.10;;;;;;4972311;28;20158;-74
2023/08/16 10:01:06;;;;;;;4.10;2.83;;;30.40;83.40;;;;;;4972775;28;20450;-74
2023/08/16 10:03:33;;;;;;;5.00;2.70;;;30.40;80.00;;;;;;4972462;28;20081;-75
2023/08/16 10:06:00;;;;;;;3.17;2.88;;;30.60;80.50;;;;;;4954974;28;20590;-75
2023/08/16 10:08:28;;;;;;;4.75;2.63;;;30.80;81.20;;;;;;4972564;28;20019;-75
2023/08/16 10:10:57;;;;;;;3.92;2.60;;;30.80;81.50;;;;;;4972241;28;20030;-75
2023/08/16 10:13:23;;;;;;;;;;;30.90;79.40;;;;;;4971611;28;20035;-76
2023/08/16 10:15:52;;;;;;;4.38;3.15;;;30.50;80.70;;;;;;4972730;28;20477;-73
2023/08/16 10:18:21;;;;;;;4.15;2.90;;;30.60;81.60;;;;;;4980466;28;20049;-72
2023/08/16 10:20:48;;;;;;;3.78;2.78;;;30.90;81.30;;;;;;4991470;28;20029;-73
2023/08/16 10:23:19;;;;;;;2.83;2.42;;;31.30;79.20;;;;;;4992055;28;20080;-73
2023/08/16 10:25:48;;;;;;;9.13;3.08;;;31.10;80.30;;;;;;4991722;28;20435;-73
2023/08/16 10:28:16;;;;;;;3.55;2.75;;;30.40;77.80;;;;;;4991802;28;20026;-73
2023/08/16 10:30:45;;;;;;;4.57;3.28;;;30.10;80.00;;;;;;4991555;28;20026;-75
2023/08/16 10:33:14;;;;;;;;;;;29.90;80.40;;;;;;4991803;28;20132;-74
2023/08/16 10:35:41;;;;;;;5.15;3.28;;;30.00;81.70;;;;;;4991593;28;20440;-76
2023/08/16 10:38:07;;;;;;;3.25;2.75;;;29.80;81.70;;;;;;4991506;28;20030;-74
2023/08/16 10:40:33;;;;;;;4.13;3.05;;;29.40;81.80;;;;;;4990129;28;20049;-75
2023/08/16 10:43:03;;;;;;;5.18;3.03;;;29.60;81.80;;;;;;4991523;28;20522;-76
2023/08/16 10:45:30;;;;;;;3.22;2.33;;;30.30;80.60;;;;;;4991416;28;20538;-78
2023/08/16 10:47:56;;;;;;;5.60;2.70;;;30.20;79.80;;;;;;4991378;28;20026;-77
2023/08/16 10:50:32;;;;;;;4.53;2.92;;;30.30;79.10;;;;;;4973376;28;20455;-76
2023/08/16 10:52:59;;;;;;;4.97;3.22;;;30.30;78.90;;;;;;4973651;28;20514;-77
2023/08/16 10:55:25;;;;;;;3.17;2.58;;;30.80;79.90;;;;;;4991506;28;20379;-78
2023/08/16 10:57:54;;;;;;;2.83;2.50;;;31.00;79.00;;;;;;4973369;28;20038;-77
2023/08/16 11:00:27;;;;;;;5.80;2.50;;;31.20;77.60;;;;;;4970005;28;20057;-75
2023/08/16 11:02:54;;;;;;;6.70;2.78;;;31.60;78.40;;;;;;4970067;28;20368;-75
2023/08/16 11:05:21;;;;;;;8.23;3.17;;;31.40;77.30;;;;;;4970557;28;20034;-76
2023/08/16 11:07:47;;;;;;;5.00;2.50;;;31.70;77.80;;;;;;4971896;28;20383;-74
2023/08/16 11:10:13;;;;;;;3.78;2.83;;;31.10;75.90;;;;;;4971381;28;20467;-75
2023/08/16 11:12:39;;;;;;;6.00;2.90;;;30.50;77.90;;;;;;4971568;28;20500;-79
2023/08/16 11:15:06;;;;;;;2.53;2.33;;;30.70;76.50;;;;;;4970413;28;20054;-78
2023/08/16 11:17:32;;;;;;;5.13;2.80;;;31.20;79.60;;;;;;4969666;28;20120;-78
2023/08/16 11:20:00;;;;;;;9.85;2.67;;;31.10;77.40;;;;;;4958863;28;20027;-78
2023/08/16 11:22:26;;;;;;;5.18;2.65;;;31.40;75.70;;;;;;4952379;28;20029;-74
2023/08/16 11:24:51;;;;;;;3.05;2.40;;;32.10;75.20;;;;;;4951266;28;20046;-74
2023/08/16 11:27:24;;;;;;;3.67;2.63;;;33.00;75.90;;;;;;4951473;28;20039;-75
2023/08/16 11:29:50;;;;;;;5.25;2.97;;;33.90;73.10;;;;;;4951057;28;20027;-74
2023/08/16 11:32:30;;;;;;;6.10;2.83;;;33.70;71.00;;;;;;4950461;28;20093;-74
2023/08/16 11:34:55;;;;;;;4.60;2.33;;;32.90;72.00;;;;;;4951746;28;20034;-74
2023/08/16 11:37:21;;;;;;;5.90;2.53;;;32.20;73.90;;;;;;4951229;28;20027;-77
2023/08/16 11:39:56;;;;;;;5.90;2.38;;;32.50;72.60;;;;;;4950801;28;20337;-74
2023/08/16 11:42:22;;;;;;;4.97;2.20;;;32.50;70.30;;;;;;4950876;28;20027;-74
2023/08/16 11:44:48;;;;;;;4.35;2.60;;;32.80;71.10;;;;;;4951023;28;20039;-73
2023/08/16 11:47:13;;;;;;;4.97;3.13;;;33.30;71.50;;;;;;4951095;28;20086;-76
2023/08/16 11:49:39;;;;;;;3.17;2.22;;;33.50;69.80;;;;;;4963262;28;20464;-74
2023/08/16 11:52:05;;;;;;;3.88;2.20;;;34.10;69.20;;;;;;4969733;28;20043;-74
2023/08/16 11:54:31;;;;;;;6.53;2.45;;;34.10;67.70;;;;;;4969998;28;20154;-74
2023/08/16 11:56:58;;;;;;;2.30;2.10;;;34.30;67.30;;;;;;4969974;28;20113;-75
2023/08/16 11:59:25;;;;;;;4.60;2.35;;;34.50;65.60;;;;;;4964892;28;20582;-75
2023/08/16 12:01:51;;;;;;;2.17;1.60;;;35.10;64.80;;;;;;4950727;28;20437;-75
2023/08/16 12:04:17;;;;;;;4.28;1.73;;;34.60;64.00;;;;;;4950993;28;20019;-76
2023/08/16 12:06:47;;;;;;;2.17;1.90;;;34.60;64.30;;;;;;4951030;28;20428;-75
2023/08/16 12:09:16;;;;;;;2.35;1.55;;;34.60;65.40;;;;;;4965112;28;20035;-75
2023/08/16 12:11:41;;;;;;;2.08;1.88;;;34.20;66.30;;;;;;4966713;28;20046;-74
2023/08/16 12:14:07;;;;;;;5.30;1.83;;;34.30;64.70;;;;;;4952353;28;20023;-75
2023/08/16 12:16:33;;;;;;;4.53;2.03;;;34.70;65.40;;;;;;4966306;28;20034;-79
2023/08/16 12:18:58;;;;;;;2.00;1.90;;;35.00;65.20;;;;;;4969665;28;20033;-74
2023/08/16 12:21:25;;;;;;;3.70;2.00;;;35.40;63.20;;;;;;4970817;28;20033;-74
2023/08/16 12:23:51;;;;;;;4.13;2.25;;;35.60;63.40;;;;;;4971102;28;20058;-72
2023/08/16 12:26:17;;;;;;;5.38;2.10;;;34.40;62.50;;;;;;4978404;28;20080;-74
2023/08/16 12:28:43;;;;;;;3.85;2.17;;;34.60;61.40;;;;;;4995650;28;20026;-74
2023/08/16 12:31:10;;;;;;;3.30;2.25;;;34.40;62.90;;;;;;4980197;28;20464;-73
2023/08/16 12:33:36;;;;;;;3.05;1.88;;;34.60;61.50;;;;;;4978971;28;20035;-74
2023/08/16 12:36:02;;;;;;;3.65;2.08;;;34.40;62.00;;;;;;4977855;28;20085;-72
2023/08/16 12:38:27;;;;;;;3.40;1.45;;;34.40;61.50;;;;;;4970268;28;20215;-74
2023/08/16 12:40:53;;;;;;;1.80;1.35;;;35.40;60.10;;;;;;4967703;28;20023;-74
2023/08/16 12:43:19;;;;;;;1.60;1.50;;;35.10;59.40;;;;;;4975314;28;20027;-71
2023/08/16 12:45:45;;;;;;;2.25;1.90;;;34.60;59.20;;;;;;4975806;28;20143;-71